createdAt,value
2019-04-03T00:01:40.867Z,3.35
2019-04-03T00:04:10.312Z,8.52
2019-04-03T00:06:39.471Z,5.65
2019-04-03T00:09:09.168Z,7.68
2019-04-03T00:11:39.905Z,5.00
2019-04-03T00:14:08.191Z,3.75
2019-04-03T00:16:37.893Z,4.60
2019-04-03T00:19:07.162Z,2.45
2019-04-03T00:21:36.677Z,3.80
2019-04-03T00:24:06.314Z,4.47
2019-04-03T00:26:35.783Z,4.32
2019-04-03T00:29:06.082Z,3.97
2019-04-03T00:31:35.467Z,3.75
2019-04-03T00:34:06.943Z,3.83
2019-04-03T00:36:36.965Z,2.20
2019-04-03T00:39:06.729Z,2.28
2019-04-03T00:41:35.876Z,3.72
2019-04-03T00:44:05.507Z,2.40
2019-04-03T00:46:34.849Z,2.17
2019-04-03T00:49:04.604Z,2.70
2019-04-03T00:51:34.202Z,3.28
2019-04-03T00:54:04.091Z,2.00
2019-04-03T00:56:33.693Z,3.78
2019-04-03T00:59:04.797Z,4.25
2019-04-03T01:01:34.543Z,3.22
2019-04-03T01:04:03.842Z,4.82
2019-04-03T01:06:33.060Z,1.90
2019-04-03T01:09:02.629Z,4.20
2019-04-03T01:11:31.958Z,3.35
2019-04-03T01:14:02.236Z,2.35
2019-04-03T01:16:33.026Z,2.87
2019-04-03T01:19:02.023Z,3.65
2019-04-03T01:21:31.333Z,3.00
2019-04-03T01:24:00.788Z,2.33
2019-04-03T01:26:30.290Z,3.62
2019-04-03T01:29:00.196Z,2.92
2019-04-03T01:31:29.523Z,2.80
2019-04-03T01:33:58.901Z,5.70
2019-04-03T01:36:29.170Z,4.55
2019-04-03T01:38:58.514Z,6.28
2019-04-03T01:41:28.054Z,8.15
2019-04-03T01:43:57.528Z,20.27
2019-04-03T01:46:27.774Z,12.70
2019-04-03T01:48:58.280Z,5.80
2019-04-03T01:51:29.081Z,5.87
2019-04-03T01:53:56.333Z,4.78
2019-04-03T01:56:26.302Z,2.87
2019-04-03T01:58:55.595Z,3.47
2019-04-03T02:01:24.826Z,4.35
2019-04-03T02:03:54.670Z,4.35
2019-04-03T02:06:24.235Z,5.55
2019-04-03T02:08:53.860Z,5.30
2019-04-03T02:11:23.256Z,4.75
2019-04-03T02:13:52.847Z,4.37
2019-04-03T02:16:23.059Z,4.07
2019-04-03T02:18:53.565Z,3.95
2019-04-03T02:21:22.164Z,3.35
2019-04-03T02:23:52.650Z,2.85
2019-04-03T02:26:22.367Z,3.60
2019-04-03T02:28:52.077Z,4.18
2019-04-03T02:31:21.730Z,2.53
2019-04-03T02:33:50.919Z,3.87
2019-04-03T02:36:21.117Z,3.92
2019-04-03T02:38:51.503Z,2.95
2019-04-03T02:41:23.045Z,5.12
2019-04-03T02:43:52.514Z,3.08
2019-04-03T02:46:22.722Z,3.55
2019-04-03T02:48:52.375Z,5.05
2019-04-03T02:51:21.781Z,3.78
2019-04-03T02:53:51.334Z,4.68
2019-04-03T02:56:20.708Z,3.75
2019-04-03T02:58:53.353Z,3.15
2019-04-03T03:01:20.206Z,5.32
2019-04-03T03:03:50.233Z,4.28
2019-04-03T03:06:19.807Z,3.12
2019-04-03T03:08:49.811Z,5.00
2019-04-03T03:11:23.155Z,3.10
2019-04-03T03:13:50.488Z,4.30
2019-04-03T03:16:20.437Z,3.85
2019-04-03T03:18:50.280Z,5.35
2019-04-03T03:21:20.418Z,2.30
2019-04-03T03:23:50.554Z,2.62
2019-04-03T03:26:20.347Z,3.83
2019-04-03T03:28:49.953Z,2.20
2019-04-03T03:31:19.665Z,3.55
2019-04-03T03:33:49.946Z,2.72
2019-04-03T03:36:23.221Z,3.28
2019-04-03T03:38:49.458Z,3.12
2019-04-03T03:41:22.049Z,2.58
2019-04-03T03:43:49.840Z,2.62
2019-04-03T03:46:20.320Z,4.05
2019-04-03T03:48:51.017Z,2.83
2019-04-03T03:51:20.978Z,3.83
2019-04-03T03:53:51.043Z,2.58
2019-04-03T03:56:20.842Z,3.55
2019-04-03T03:58:50.382Z,1.87
2019-04-03T04:01:20.214Z,2.92
2019-04-03T04:03:49.818Z,6.25
2019-04-03T04:06:19.277Z,5.62
2019-04-03T04:08:49.198Z,4.87
2019-04-03T04:11:18.807Z,2.12
2019-04-03T04:13:49.706Z,2.58
2019-04-03T04:16:18.389Z,2.85
2019-04-03T04:18:48.313Z,3.20
2019-04-03T04:21:17.776Z,3.20
2019-04-03T04:23:47.686Z,3.53
2019-04-03T04:26:17.364Z,2.70
2019-04-03T04:28:46.900Z,3.70
2019-04-03T04:31:16.534Z,3.42
2019-04-03T04:33:47.985Z,3.53
2019-04-03T04:36:16.390Z,3.72
2019-04-03T04:38:46.403Z,3.60
2019-04-03T04:41:15.712Z,2.25
2019-04-03T04:43:45.334Z,2.45
2019-04-03T04:46:15.318Z,3.87
2019-04-03T04:48:44.911Z,2.97
2019-04-03T04:51:14.309Z,4.05
2019-04-03T04:53:43.792Z,3.97
2019-04-03T04:56:13.195Z,3.95
2019-04-03T04:58:43.597Z,3.87
2019-04-03T05:01:13.335Z,3.55
2019-04-03T05:03:43.178Z,2.42
2019-04-03T05:06:12.385Z,4.43
2019-04-03T05:08:41.933Z,4.90
2019-04-03T05:11:11.524Z,4.53
2019-04-03T05:13:41.190Z,4.65
2019-04-03T05:16:10.788Z,2.87
2019-04-03T05:18:40.488Z,2.90
2019-04-03T05:21:09.926Z,2.83
2019-04-03T05:23:39.238Z,3.87
2019-04-03T05:26:08.088Z,3.20
2019-04-03T05:28:37.390Z,3.17
2019-04-03T05:31:08.200Z,6.12
2019-04-03T05:33:36.882Z,5.07
2019-04-03T05:36:07.100Z,5.00
2019-04-03T05:38:38.033Z,4.20
2019-04-03T05:41:07.387Z,5.40
2019-04-03T05:43:36.717Z,4.47
2019-04-03T05:46:06.375Z,2.72
2019-04-03T05:48:35.885Z,6.53
2019-04-03T05:51:05.256Z,4.57
2019-04-03T05:53:36.591Z,2.87
2019-04-03T05:56:04.423Z,4.73
2019-04-03T05:58:34.206Z,3.60
2019-04-03T06:01:06.613Z,4.62
2019-04-03T06:03:40.857Z,4.50
2019-04-03T06:06:04.444Z,3.60
2019-04-03T06:08:34.736Z,4.60
2019-04-03T06:11:07.667Z,3.30
2019-04-03T06:13:34.238Z,5.17
2019-04-03T06:16:03.818Z,6.07
2019-04-03T06:18:33.348Z,3.97
2019-04-03T06:21:02.925Z,4.00
2019-04-03T06:23:32.883Z,3.40
2019-04-03T06:26:03.072Z,5.57
2019-04-03T06:28:32.948Z,4.40
2019-04-03T06:31:03.311Z,4.70
2019-04-03T06:33:35.293Z,4.97
2019-04-03T06:36:08.653Z,4.03
2019-04-03T06:38:38.274Z,4.53
2019-04-03T06:41:09.083Z,3.67
2019-04-03T06:43:38.566Z,4.20
2019-04-03T06:46:07.994Z,3.93
2019-04-03T06:48:37.611Z,6.00
2019-04-03T06:51:06.434Z,3.73
2019-04-03T06:53:35.902Z,3.90
2019-04-03T06:56:07.835Z,3.23
2019-04-03T06:58:39.379Z,2.90
2019-04-03T07:01:05.775Z,6.23
2019-04-03T07:03:35.239Z,4.90
2019-04-03T07:06:04.784Z,5.03
2019-04-03T07:08:36.069Z,5.10
2019-04-03T07:11:04.331Z,4.97
2019-04-03T07:13:34.890Z,5.00
2019-04-03T07:16:04.918Z,5.53
2019-04-03T07:18:34.718Z,6.40
2019-04-03T07:21:03.954Z,7.37
2019-04-03T07:23:33.659Z,6.80
2019-04-03T07:26:05.164Z,5.10
2019-04-03T07:28:33.286Z,6.13
2019-04-03T07:31:03.718Z,3.30
2019-04-03T07:33:33.464Z,2.83
2019-04-03T07:36:02.864Z,3.87
2019-04-03T07:38:32.221Z,3.77
2019-04-03T07:41:01.878Z,2.30
2019-04-03T07:43:32.488Z,2.37
2019-04-03T07:46:03.415Z,3.17
2019-04-03T07:48:33.305Z,3.87
2019-04-03T07:51:02.152Z,2.63
2019-04-03T07:53:32.020Z,5.60
2019-04-03T07:56:02.086Z,3.03
2019-04-03T07:58:32.497Z,2.53
2019-04-03T08:01:01.422Z,2.97
2019-04-03T08:03:31.081Z,4.07
2019-04-03T08:06:03.218Z,2.63
2019-04-03T08:08:31.467Z,3.00
2019-04-03T08:11:02.203Z,4.20
2019-04-03T08:13:31.214Z,4.27
2019-04-03T08:16:00.655Z,3.23
2019-04-03T08:18:30.438Z,2.87
2019-04-03T08:21:01.541Z,2.63
2019-04-03T08:23:29.683Z,2.53
2019-04-03T08:25:58.972Z,4.60
2019-04-03T08:28:30.300Z,3.53
2019-04-03T08:30:58.655Z,2.50
2019-04-03T08:33:28.275Z,3.10
2019-04-03T08:35:57.792Z,2.97
2019-04-03T08:38:27.509Z,2.43
2019-04-03T08:40:57.129Z,3.87
2019-04-03T08:43:26.528Z,3.47
2019-04-03T08:45:55.798Z,2.40
2019-04-03T08:48:25.159Z,2.47
2019-04-03T08:50:54.615Z,5.20
2019-04-03T08:53:23.874Z,4.10
2019-04-03T08:55:56.374Z,2.30
2019-04-03T08:58:25.398Z,3.77
2019-04-03T09:00:53.165Z,4.37
2019-04-03T09:03:22.448Z,2.57
2019-04-03T09:05:55.400Z,3.13
2019-04-03T09:08:21.784Z,2.33
2019-04-03T09:10:51.423Z,2.53
2019-04-03T09:13:23.248Z,2.67
2019-04-03T09:15:51.115Z,4.00
2019-04-03T09:18:20.815Z,2.70
2019-04-03T09:20:50.368Z,2.57
2019-04-03T09:23:20.332Z,2.90
2019-04-03T09:25:49.912Z,3.43
2019-04-03T09:28:19.599Z,3.83
2019-04-03T09:30:48.964Z,3.13
2019-04-03T09:33:18.312Z,3.00
2019-04-03T09:35:47.726Z,2.73
2019-04-03T09:38:17.450Z,2.83
2019-04-03T09:40:48.322Z,3.37
2019-04-03T09:43:16.491Z,2.47
2019-04-03T09:45:46.114Z,4.17
2019-04-03T09:48:15.470Z,2.77
2019-04-03T09:50:46.328Z,3.03
2019-04-03T09:53:15.001Z,2.63
2019-04-03T09:55:44.647Z,4.60
2019-04-03T09:58:14.046Z,3.37
2019-04-03T10:00:43.645Z,2.73
2019-04-03T10:03:13.787Z,2.93
2019-04-03T10:05:43.109Z,2.60
2019-04-03T10:08:12.640Z,2.93
2019-04-03T10:10:42.283Z,3.03
2019-04-03T10:13:12.250Z,4.07
2019-04-03T10:15:41.620Z,3.43
2019-04-03T10:18:10.893Z,2.60
2019-04-03T10:20:40.183Z,2.93
2019-04-03T10:23:09.850Z,3.33
2019-04-03T10:25:39.348Z,2.70
2019-04-03T10:28:08.968Z,3.27
2019-04-03T10:30:38.312Z,3.53
2019-04-03T10:33:08.379Z,3.00
2019-04-03T10:35:39.299Z,2.50
2019-04-03T10:38:07.767Z,2.70
2019-04-03T10:40:36.863Z,3.10
2019-04-03T10:43:06.714Z,3.73
2019-04-03T10:45:36.515Z,2.17
2019-04-03T10:48:06.128Z,2.70
2019-04-03T10:50:37.525Z,3.50
2019-04-03T10:53:05.508Z,3.20
2019-04-03T10:55:35.123Z,3.33
2019-04-03T10:58:06.759Z,2.87
2019-04-03T11:00:35.937Z,2.53
2019-04-03T11:03:05.293Z,3.03
2019-04-03T11:05:34.712Z,2.83
2019-04-03T11:08:04.755Z,2.97
2019-04-03T11:10:34.349Z,2.67
2019-04-03T11:13:04.753Z,3.43
2019-04-03T11:15:34.162Z,3.00
2019-04-03T11:18:03.824Z,2.27
2019-04-03T11:20:35.812Z,2.77
2019-04-03T11:23:06.381Z,3.23
2019-04-03T11:25:33.909Z,2.70
2019-04-03T11:28:05.251Z,3.03
2019-04-03T11:30:33.388Z,3.17
2019-04-03T11:33:03.012Z,3.23
2019-04-03T11:35:32.781Z,2.37
2019-04-03T11:38:11.701Z,3.30
2019-04-03T11:40:31.901Z,3.00
2019-04-03T11:43:01.244Z,2.30
2019-04-03T11:45:31.555Z,2.53
2019-04-03T11:48:00.602Z,2.33
2019-04-03T11:50:30.098Z,2.40
2019-04-03T11:53:02.749Z,3.13
2019-04-03T11:55:31.023Z,2.53
2019-04-03T11:58:00.510Z,2.70
2019-04-03T12:00:31.026Z,2.20
2019-04-03T12:03:00.345Z,2.50
2019-04-03T12:05:29.812Z,2.27
2019-04-03T12:07:59.546Z,2.57
2019-04-03T12:10:28.169Z,3.23
2019-04-03T12:12:58.493Z,2.83
2019-04-03T12:15:27.966Z,2.97
2019-04-03T12:18:00.740Z,2.53
2019-04-03T12:20:28.365Z,3.13
2019-04-03T12:22:58.080Z,1.97
2019-04-03T12:25:27.373Z,1.80
2019-04-03T12:27:56.966Z,2.57
2019-04-03T12:30:26.933Z,1.97
2019-04-03T12:32:56.128Z,2.13
2019-04-03T12:35:25.572Z,3.63
2019-04-03T12:37:55.017Z,3.10
2019-04-03T12:40:24.685Z,2.93
2019-04-03T12:42:54.338Z,2.53
2019-04-03T12:45:26.158Z,2.87
2019-04-03T12:47:53.813Z,2.53
2019-04-03T12:50:26.452Z,2.03
2019-04-03T12:52:54.100Z,2.00
2019-04-03T12:55:25.983Z,2.17
2019-04-03T12:57:53.634Z,2.60
2019-04-03T13:00:23.577Z,1.60
2019-04-03T13:02:53.521Z,2.83
2019-04-03T13:05:23.273Z,2.43
2019-04-03T13:07:52.629Z,3.63
2019-04-03T13:10:22.315Z,1.80
2019-04-03T13:12:54.602Z,1.90
2019-04-03T13:15:21.692Z,2.13
2019-04-03T13:17:51.548Z,1.70
2019-04-03T13:20:21.361Z,2.67
2019-04-03T13:22:50.763Z,2.47
2019-04-03T13:25:21.401Z,1.70
2019-04-03T13:27:50.202Z,2.00
2019-04-03T13:30:20.089Z,3.00
2019-04-03T13:32:58.376Z,2.50
2019-04-03T13:35:19.640Z,2.67
2019-04-03T13:37:49.473Z,1.70
2019-04-03T13:40:19.874Z,2.60
2019-04-03T13:42:49.635Z,1.40
2019-04-03T13:45:19.316Z,2.03
2019-04-03T13:47:48.820Z,2.20
2019-04-03T13:50:25.780Z,3.00
2019-04-03T13:52:55.866Z,2.47
2019-04-03T13:55:24.596Z,3.73
2019-04-03T13:57:55.844Z,1.50
2019-04-03T14:00:24.925Z,2.03
2019-04-03T14:02:57.052Z,1.80
2019-04-03T14:05:26.587Z,1.87
2019-04-03T14:07:54.316Z,1.80
2019-04-03T14:10:26.317Z,2.80
2019-04-03T14:12:53.553Z,4.00
2019-04-03T14:15:23.121Z,3.60
2019-04-03T14:17:56.396Z,1.80
2019-04-03T14:20:23.798Z,2.67
2019-04-03T14:22:53.109Z,2.20
2019-04-03T14:25:25.536Z,2.03
2019-04-03T14:27:52.728Z,2.33
2019-04-03T14:30:22.273Z,2.07
2019-04-03T14:32:52.834Z,2.20
2019-04-03T14:35:45.517Z,1.70
2019-04-03T14:37:51.308Z,2.23
2019-04-03T14:40:21.562Z,1.80
2019-04-03T14:42:50.804Z,1.93
2019-04-03T14:45:20.381Z,2.97
2019-04-03T14:47:49.932Z,3.03
2019-04-03T14:50:19.623Z,2.23
2019-04-03T14:52:49.662Z,3.00
2019-04-03T14:55:21.281Z,2.33
2019-04-03T14:57:49.757Z,1.50
2019-04-03T15:00:30.241Z,2.80
2019-04-03T15:02:49.110Z,1.90
2019-04-03T15:05:18.676Z,2.13
2019-04-03T15:07:50.543Z,1.97
2019-04-03T15:10:18.581Z,2.10
2019-04-03T15:12:48.056Z,1.63
2019-04-03T15:15:18.107Z,1.80
2019-04-03T15:17:47.719Z,2.40
2019-04-03T15:20:18.745Z,1.60
2019-04-03T15:22:47.473Z,1.90
2019-04-03T15:25:19.547Z,1.87
2019-04-03T15:27:47.151Z,2.27
2019-04-03T15:30:16.926Z,1.97
2019-04-03T15:32:47.013Z,4.73
2019-04-03T15:35:16.536Z,3.30
2019-04-03T15:37:46.045Z,2.27
2019-04-03T15:40:16.181Z,2.47
2019-04-03T15:42:46.426Z,2.43
2019-04-03T15:45:15.970Z,2.20
2019-04-03T15:47:47.719Z,2.43
2019-04-03T15:50:16.621Z,2.70
2019-04-03T15:52:48.434Z,3.13
2019-04-03T15:55:16.399Z,1.93
2019-04-03T15:57:46.039Z,1.70
2019-04-03T16:00:15.952Z,2.17
2019-04-03T16:02:46.673Z,1.60
2019-04-03T16:05:15.640Z,2.23
2019-04-03T16:07:45.057Z,1.70
2019-04-03T16:10:14.667Z,1.47
2019-04-03T16:12:44.125Z,1.57
2019-04-03T16:15:13.879Z,2.80
2019-04-03T16:17:43.539Z,2.23
2019-04-03T16:20:15.995Z,1.40
2019-04-03T16:22:43.797Z,1.63
2019-04-03T16:25:16.164Z,1.70
2019-04-03T16:27:44.312Z,1.37
2019-04-03T16:30:15.570Z,1.77
2019-04-03T16:32:43.564Z,1.50
2019-04-03T16:35:14.517Z,1.70
2019-04-03T16:37:43.743Z,1.63
2019-04-03T16:40:13.045Z,1.93
2019-04-03T16:42:43.244Z,2.20
2019-04-03T16:45:12.278Z,1.60
2019-04-03T16:47:44.059Z,2.67
2019-04-03T16:50:11.778Z,1.73
2019-04-03T16:52:41.217Z,2.73
2019-04-03T16:55:10.743Z,1.50
2019-04-03T16:57:40.399Z,1.33
2019-04-03T17:00:10.469Z,2.33
2019-04-03T17:02:40.251Z,1.53
2019-04-03T17:05:11.664Z,2.57
2019-04-03T17:07:40.465Z,1.43
2019-04-03T17:10:10.665Z,1.40
2019-04-03T17:12:39.651Z,2.70
2019-04-03T17:15:09.750Z,1.97
2019-04-03T17:17:39.332Z,2.23
2019-04-03T17:20:09.403Z,1.60
2019-04-03T17:22:40.871Z,1.37
2019-04-03T17:25:09.202Z,1.37
2019-04-03T17:27:39.395Z,1.30
2019-04-03T17:30:09.382Z,1.17
2019-04-03T17:32:38.870Z,1.00
2019-04-03T17:35:08.742Z,1.67
2019-04-03T17:37:38.435Z,1.63
2019-04-03T17:40:08.994Z,1.10
2019-04-03T17:42:39.958Z,2.47
2019-04-03T17:45:08.743Z,2.57
2019-04-03T17:47:38.275Z,1.40
2019-04-03T17:50:07.910Z,1.93
2019-04-03T17:52:37.336Z,1.30
2019-04-03T17:55:09.521Z,1.27
2019-04-03T17:57:36.461Z,2.30
2019-04-03T18:00:07.279Z,1.77
2019-04-03T18:02:37.106Z,1.47
2019-04-03T18:05:07.275Z,1.30
2019-04-03T18:07:37.245Z,2.10
2019-04-03T18:10:09.150Z,1.50
2019-04-03T18:12:37.074Z,1.40
2019-04-03T18:15:08.019Z,1.73
2019-04-03T18:17:37.617Z,1.40
2019-04-03T18:20:07.242Z,1.43
2019-04-03T18:22:36.685Z,1.50
2019-04-03T18:25:08.066Z,1.97
2019-04-03T18:27:38.506Z,1.80
2019-04-03T18:30:11.135Z,2.53
2019-04-03T18:32:38.049Z,1.57
2019-04-03T18:35:10.770Z,1.50
2019-04-03T18:37:41.071Z,1.60
2019-04-03T18:40:14.146Z,2.10
2019-04-03T18:42:40.199Z,2.17
2019-04-03T18:45:10.463Z,2.53
2019-04-03T18:47:41.677Z,2.20
2019-04-03T18:50:10.118Z,2.57
2019-04-03T18:52:39.466Z,1.63
2019-04-03T18:55:08.983Z,2.00
2019-04-03T18:57:38.641Z,2.00
2019-04-03T19:00:08.949Z,1.53
2019-04-03T19:02:38.300Z,1.80
2019-04-03T19:05:10.964Z,3.13
2019-04-03T19:07:39.572Z,2.03
2019-04-03T19:10:09.082Z,2.03
2019-04-03T19:12:38.715Z,3.00
2019-04-03T19:15:08.375Z,3.47
2019-04-03T19:17:37.901Z,3.17
2019-04-03T19:20:10.624Z,2.10
2019-04-03T19:22:37.205Z,3.53
2019-04-03T19:25:07.747Z,2.30
2019-04-03T19:27:37.587Z,2.33
2019-04-03T19:30:07.894Z,2.27
2019-04-03T19:32:37.415Z,2.20
2019-04-03T19:35:09.557Z,3.43
2019-04-03T19:37:38.266Z,2.20
2019-04-03T19:40:09.930Z,2.23
2019-04-03T19:42:37.691Z,2.03
2019-04-03T19:45:07.505Z,2.43
2019-04-03T19:47:36.985Z,2.53
2019-04-03T19:50:08.208Z,2.43
2019-04-03T19:52:41.479Z,2.80
2019-04-03T19:55:08.861Z,2.23
2019-04-03T19:57:38.386Z,2.83
2019-04-03T20:00:08.118Z,3.83
2019-04-03T20:02:38.168Z,2.20
2019-04-03T20:05:08.054Z,2.40
2019-04-03T20:07:37.577Z,2.40
2019-04-03T20:10:07.454Z,2.30
2019-04-03T20:12:37.684Z,3.20
2019-04-03T20:15:08.702Z,3.00
2019-04-03T20:17:38.397Z,3.03
2019-04-03T20:20:08.131Z,2.73
2019-04-03T20:22:38.635Z,5.53
2019-04-03T20:25:07.716Z,2.30
2019-04-03T20:27:38.805Z,2.53
2019-04-03T20:30:08.247Z,2.40
2019-04-03T20:32:40.005Z,2.55
2019-04-03T20:35:07.210Z,4.10
2019-04-03T20:37:36.625Z,2.97
2019-04-03T20:40:06.287Z,3.60
2019-04-03T20:42:35.734Z,3.00
2019-04-03T20:45:06.255Z,3.92
2019-04-03T20:47:35.693Z,3.27
2019-04-03T20:50:07.066Z,3.90
2019-04-03T20:52:35.249Z,4.22
2019-04-03T20:55:05.131Z,4.10
2019-04-03T20:57:34.015Z,3.95
2019-04-03T21:00:03.919Z,4.53
2019-04-03T21:02:33.199Z,4.75
2019-04-03T21:05:02.816Z,4.55
2019-04-03T21:07:32.311Z,4.25
2019-04-03T21:10:01.703Z,4.40
2019-04-03T21:12:31.181Z,4.93
2019-04-03T21:15:08.196Z,4.77
2019-04-03T21:17:30.708Z,4.40
2019-04-03T21:20:00.036Z,3.83
2019-04-03T21:22:30.405Z,4.90
2019-04-03T21:24:59.610Z,3.97
2019-04-03T21:27:29.294Z,4.55
2019-04-03T21:29:59.032Z,3.28
2019-04-03T21:32:28.832Z,4.62
2019-04-03T21:34:58.012Z,5.30
2019-04-03T21:37:27.622Z,5.03
2019-04-03T21:39:57.067Z,3.47
2019-04-03T21:42:26.886Z,3.10
2019-04-03T21:44:56.396Z,4.62
2019-04-03T21:47:25.632Z,2.40
2019-04-03T21:49:55.033Z,3.30
2019-04-03T21:52:24.247Z,2.72
2019-04-03T21:54:53.621Z,2.85
2019-04-03T21:57:23.227Z,1.85
2019-04-03T21:59:53.370Z,2.53
2019-04-03T22:02:22.906Z,2.15
2019-04-03T22:04:53.969Z,2.60
2019-04-03T22:07:22.260Z,1.70
2019-04-03T22:09:51.615Z,2.67
2019-04-03T22:12:20.810Z,1.77
2019-04-03T22:14:50.162Z,8.13
2019-04-03T22:17:21.659Z,2.60
2019-04-03T22:19:49.106Z,3.17
2019-04-03T22:22:18.255Z,2.62
2019-04-03T22:24:48.357Z,3.10
2019-04-03T22:27:17.837Z,2.85
2019-04-03T22:29:47.188Z,2.50
2019-04-03T22:32:16.890Z,1.98
2019-04-03T22:34:46.576Z,2.10
2019-04-03T22:37:15.866Z,1.58
2019-04-03T22:39:46.332Z,1.50
2019-04-03T22:42:15.796Z,1.73
2019-04-03T22:44:47.698Z,1.58
2019-04-03T22:47:15.104Z,1.55
2019-04-03T22:49:44.378Z,1.70
2019-04-03T22:52:14.069Z,2.87
2019-04-03T22:54:43.904Z,2.17
2019-04-03T22:57:13.539Z,2.37
2019-04-03T22:59:43.173Z,1.92
2019-04-03T23:02:12.630Z,1.67
2019-04-03T23:04:42.422Z,1.85
2019-04-03T23:07:11.618Z,2.60
2019-04-03T23:09:41.244Z,2.83
2019-04-03T23:12:10.807Z,1.58
2019-04-03T23:14:40.280Z,3.67
2019-04-03T23:17:09.931Z,1.55
2019-04-03T23:19:40.028Z,0.95
2019-04-03T23:22:09.463Z,0.90
2019-04-03T23:24:39.671Z,1.40
2019-04-03T23:27:09.201Z,1.23
2019-04-03T23:29:38.679Z,2.72
2019-04-03T23:32:08.990Z,1.35
2019-04-03T23:34:38.957Z,1.55
2019-04-03T23:37:08.457Z,1.95
2019-04-03T23:39:37.541Z,1.48
2019-04-03T23:42:07.514Z,1.55
2019-04-03T23:44:37.050Z,2.08
2019-04-03T23:47:06.465Z,1.95
2019-04-03T23:49:36.888Z,2.33
2019-04-03T23:52:07.563Z,3.12
2019-04-03T23:54:38.117Z,2.65
2019-04-03T23:57:09.557Z,2.12
2019-04-03T23:59:37.094Z,2.95
